x

Virginia Beach 64 Nm East Of Virginia Beach, Va (44014) Wave Buoy

7:50am - Mon 25th Sep 2017 All times are EDT. -4 hours from GMT.

  • Sig Wave height 11.2ft
  • Swell Direction
  • Peak Period 15s
  • Average Period 9s
  • Wind
    18mph, 20mph gusts
  • Sea Temp 70°f
  • Air Temp 71°f
  • Sea Pressure 1015.1mb
  • Virginia Beach 64 Nm East Of Virginia Beach, Va
  • Virginia Beach 64 Nm East Of Virginia Beach, Va

More Historic Weather Station data

Upgrade to MSW Pro to gain access to the past 30 days of data for over 8000 Wavebouys and Weather Stations around the globe.

Join

Comparision Forecast

View Surf forecast
   
Mon 09/25 7:50am 11ft 15s 9s 18 20 mph 1015.1mb 70f 71f
6:50am 11ft 15s 9s 16 20 mph 1014.9mb 70f 71f
5:50am 11ft 14s 10s 16 18 mph 1014.7mb 70f 71f
4:50am 12ft 15s 10s 18 22 mph 1014.3mb 70f 71f
3:50am 12ft 15s 10s 16 18 mph 1014.7mb 70f 71f
1:50am 11ft 15s 10s 16 20 mph 1015.2mb 70f 71f
12:50am 11ft 16s 10s 16 20 mph 1015.1mb 70f 71f
Sun 09/24 11:50pm 11ft 16s 10s 11 13 mph 1015.7mb 70f 71f
10:50pm 9.5ft 15s 9s 11 13 mph 1016.3mb 70f 71f
9:50pm 9ft 13s 9s 11 13 mph 1016.4mb 70f 71f
8:50pm 8ft 12s 9s 16 18 mph 1016.4mb 71f 71f
7:50pm 8ft 11s 9s 13 16 mph 1016.1mb 71f 71f
6:50pm 8ft 14s 10s 13 18 mph 1015.8mb 71f 71f
5:50pm 8ft 12s 9s 13 18 mph 1015.7mb 71f 71f
4:50pm 8ft 13s 10s 13 16 mph 1016.1mb 72f 71f
3:50pm 8ft 14s 10s 11 13 mph 1016.4mb 72f 71f
2:50pm 8ft 13s 10s 9 11 mph 1017.1mb 72f 71f
1:50pm 8ft 14s 10s 9 11 mph 1017.6mb 71f 71f
12:50pm 8ft 14s 10s 9 11 mph 1017.9mb 71f 71f
11:50am 8ft 13s 10s 7 9 mph 1018mb 71f 71f
10:50am 8ft 14s 10s 4 7 mph 1017.9mb 70f 70f
9:50am 7.5ft 14s 10s 7 9 mph 1017.9mb 70f 70f
8:50am 7.5ft 14s 10s 4 7 mph 1017.9mb 69f 70f
7:50am 8ft 14s 10s 7 9 mph 1017.8mb 69f 70f
6:50am 8.5ft 15s 10s 4 7 mph 1017.7mb 69f 70f
5:50am 8ft 14s 10s 7 11 mph 1017.3mb 69f 70f
4:50am 8ft 15s 10s 9 11 mph 1016.9mb 69f 70f
3:50am 8ft 11s 9s 7 9 mph 1016.9mb 69f 70f
2:50am 9ft 13s 10s 7 9 mph 1016.9mb 69f 69f
1:50am 9ft 14s 10s 9 11 mph 1017.3mb 69f 69f
12:50am 8.5ft 13s 9s 7 9 mph 1017.6mb 69f 69f
Sat 09/23 11:50pm 9ft 14s 10s 4 7 mph 1018.2mb 70f 69f
10:50pm 9ft 12s 10s 4 7 mph 1018.2mb 70f 69f
9:50pm 9ft 12s 10s 7 7 mph 1018.5mb 70f 70f
8:50pm 8ft 11s 9s 7 9 mph 1018.2mb 70f 70f
7:50pm 7.5ft 12s 9s 9 11 mph 1017.8mb 70f 70f
6:50pm 7ft 13s 9s 11 16 mph 1017.4mb 71f 71f
5:50pm 8ft 13s 10s 11 16 mph 1017.3mb 71f 71f
4:50pm 9.5ft 13s 10s 11 16 mph 1017mb 71f 71f
3:50pm 8.5ft 13s 9s 9 13 mph 1017.2mb 71f 71f
2:50pm 10ft 14s 10s 9 11 mph 1017.5mb 71f 71f
1:50pm 8ft 14s 9s 9 11 mph 1017.6mb 71f 71f
12:50pm 9.5ft 14s 10s 9 11 mph 1017.7mb 71f 71f
11:50am 9ft 14s 10s 9 11 mph 1017.6mb 70f 70f
10:50am 8ft 14s 9s 7 9 mph 1017.6mb 70f 70f
9:50am 9ft 14s 10s 7 9 mph 1017.3mb 69f 71f
8:50am 8.5ft 14s 10s 9 9 mph 1016.8mb 69f 70f
7:50am 8ft 14s 9s 7 11 mph 1016.2mb 69f 70f
6:50am 8.5ft 15s 9s 9 11 mph 1016mb 69f 70f
5:50am 8.5ft 11s 9s 7 9 mph 1015.7mb 69f 70f
4:50am 9ft 11s 10s 9 11 mph 1015.6mb 69f 70f
3:50am 7.5ft 11s 9s 9 11 mph 1015.7mb 69f 70f
2:50am 9ft 11s 9s 7 11 mph 1015.9mb 69f 70f
1:50am 9ft 11s 10s 7 9 mph 1016.1mb 69f 70f
12:50am 9ft 11s 9s 7 9 mph 1015.9mb 70f 70f
Fri 09/22 11:50pm 8ft 11s 9s 7 9 mph 1015.8mb 70f 70f
10:50pm 9ft 11s 9s 7 9 mph 1016.2mb 70f 70f
9:50pm 7.5ft 11s 8s 4 7 mph 1016.2mb 70f 70f
8:50pm 8.5ft 11s 9s 2 4 mph 1016.2mb 71f 70f
7:50pm 9ft 11s 9s 2 4 mph 1016mb 71f 70f
6:50pm 9ft 11s 9s 7 9 mph 1015.4mb 71f 71f
5:50pm 9ft 11s 9s 7 9 mph 1015.6mb 72f 72f
4:50pm 10ft 11s 9s 9 9 mph 1015.6mb 72f 72f
3:50pm 9ft 12s 8s 7 9 mph 1015.8mb 71f 72f
2:50pm 10ft 11s 9s 9 11 mph 1016.1mb 71f 72f
1:50pm 9ft 12s 9s 9 11 mph 1016.3mb 71f 72f
12:50pm 7.5ft 11s 8s 11 13 mph 1016.5mb 70f 72f
11:50am 8.5ft 11s 9s 9 13 mph 1016.9mb 70f 71f
10:50am 8.5ft 12s 9s 11 13 mph 1017mb 70f 71f
9:50am 9ft 11s 9s 9 11 mph 1017.4mb 69f 71f
8:50am 8ft 11s 9s 11 16 mph 1017.4mb 69f 71f
7:50am 10ft 12s 10s 9 11 mph 1017.4mb 69f 70f
6:50am 9ft 12s 9s 7 9 mph 1017mb 69f 70f
5:50am 7.5ft 11s 9s 7 9 mph 1016.7mb 69f 69f
4:50am 9ft 11s 9s 4 7 mph 1016.2mb 69f 69f
3:50am 9ft 11s 9s 4 9 mph 1016mb 69f 69f
1:50am 7ft 11s 8s 7 9 mph 1017.1mb 69f 69f
12:50am 7ft 11s 8s 4 9 mph 1017.3mb 69f 69f
Thu 09/21 11:50pm 7ft 10s 8s 4 4 mph 1017.7mb 69f 69f
10:50pm 7ft 11s 8s 4 7 mph 1017.7mb 70f 70f
9:50pm 6.5ft 11s 8s 4 7 mph 1017.4mb 71f 70f
8:50pm 6.5ft 10s 7s 9 9 mph 1016.7mb 71f 71f
7:50pm 6.5ft 11s 8s 7 11 mph 1016.4mb 71f 71f
6:50pm 6.5ft 10s 8s 9 11 mph 1016.3mb 71f 71f
5:50pm 5.5ft 11s 8s 7 7 mph 1016.1mb 71f 71f
4:50pm 6ft 9s 8s 11 11 mph 1015.9mb 72f 72f
3:50pm 7ft 11s 8s 9 9 mph 1016.1mb 72f 72f
2:50pm 7.5ft 11s 9s 7 7 mph 1016.5mb 72f 73f
1:50pm 7ft 11s 8s 7 7 mph 1016.6mb 72f 72f
12:50pm 8ft 11s 9s 7 7 mph 1016.7mb 71f 72f